Flormar — EA4198 — position and weather

sailwx.info

Track history (hours):
 
Tides and Currents Weather Stations Pressure Air Temp Water Temp Dewpoint Dewpoint Depression Visibility Wind Speed Wind Dir Waves Ship Positions

Flormar

Last reported at 2018-Feb-21 13:33 UTC. Time now 2018-Feb-22 07:07 UTC.
Position N 28°34' W 016°05'.

Length 23 m; draft 2.4 m.

Type: Other ship. MMSI: 224120850.

Date/timePositionNaut miles runAvg speedWind from/ knotsBaromVisibWave heightAir tempDewpointWater temp
2018-Feb-21 13:33N 28°34' W 016°05'0 8.0
2018-Feb-21 13:30N 28°34' W 016°05'4 7.8
2018-Feb-21 13:00N 28°31' W 016°07'4 8.0
2018-Feb-21 12:30N 28°29' W 016°11'1 2.3
2018-Feb-21 12:00N 28°30' W 016°12'0 0.0
2018-Feb-21 11:30N 28°30' W 016°12'0 0.0
2018-Feb-21 11:00N 28°30' W 016°12'0 0.0
2018-Feb-21 10:30N 28°30' W 016°12'0 0.0
2018-Feb-21 10:00N 28°30' W 016°12'0 0.0
2018-Feb-21 09:30N 28°30' W 016°12'0 0.0
2018-Feb-21 09:00N 28°30' W 016°12'0 0.0
2018-Feb-21 08:30N 28°30' W 016°12'0 0.0
2018-Feb-21 08:00N 28°30' W 016°12'0 0.0
2018-Feb-21 07:30N 28°30' W 016°12'0 0.0
2018-Feb-21 07:00N 28°30' W 016°12'0 0.0
2018-Feb-21 06:30N 28°30' W 016°12'0 0.0
2018-Feb-21 06:00N 28°30' W 016°12'0 0.0
2018-Feb-21 05:29N 28°30' W 016°12'0 0.0
2018-Feb-21 05:00N 28°30' W 016°12'0 0.0
2018-Feb-21 04:30N 28°30' W 016°12'0 0.0
2018-Feb-21 04:00N 28°30' W 016°12'0 0.4
2018-Feb-21 03:29N 28°30' W 016°12'0 0.0
2018-Feb-21 03:00N 28°30' W 016°12'0 0.0
2018-Feb-21 02:30N 28°30' W 016°12'0 0.0
2018-Feb-21 02:00N 28°30' W 016°12'0 0.0
2018-Feb-21 01:30N 28°30' W 016°12'0 0.0
2018-Feb-21 01:00N 28°30' W 016°12'0 0.0
2018-Feb-21 00:30N 28°30' W 016°12'0 0.0
2018-Feb-21 00:00N 28°30' W 016°12'0 0.0
2018-Feb-20 23:30N 28°30' W 016°12'0 0.0
2018-Feb-20 23:00N 28°30' W 016°12'0 0.0
2018-Feb-20 22:30N 28°30' W 016°12'0 0.0
2018-Feb-20 20:25N 28°30' W 016°12'0 0.0
2018-Feb-20 20:00N 28°30' W 016°12'0 0.0
2018-Feb-20 19:30N 28°30' W 016°12'0 0.0
2018-Feb-20 19:01N 28°30' W 016°12'0 0.0
2018-Feb-20 18:30N 28°30' W 016°12'0 0.0
2018-Feb-20 18:01N 28°30' W 016°12'0 0.0
2018-Feb-20 17:31N 28°30' W 016°12'0 0.0
2018-Feb-20 17:01N 28°30' W 016°12'0 0.0
2018-Feb-20 16:30N 28°30' W 016°12'0 0.0
2018-Feb-20 16:01N 28°30' W 016°12'0 0.0
2018-Feb-20 15:30N 28°30' W 016°12'1 1.9
2018-Feb-20 15:00N 28°29' W 016°12'4 8.6
2018-Feb-20 14:31N 28°26' W 016°08'5 8.5
2018-Feb-20 13:55N 28°24' W 016°03'15 6.6
2018-Feb-20 11:40N 28°17' W 015°48'1 3.5
2018-Feb-20 11:27N 28°17' W 015°48'2 4.0
2018-Feb-20 10:58N 28°18' W 015°46'3 5.7
2018-Feb-20 10:30N 28°20' W 015°45'2 3.4
2018-Feb-20 09:59N 28°21' W 015°43'2 4.3
2018-Feb-20 09:29N 28°21' W 015°40'2 4.5
2018-Feb-20 09:00N 28°22' W 015°38'2 4.6
2018-Feb-20 08:31N 28°24' W 015°36'2 4.5
2018-Feb-20 08:01N 28°25' W 015°34'2 4.8
2018-Feb-20 07:30N 28°26' W 015°32'2 3.7
2018-Feb-20 07:00N 28°27' W 015°30'1 2.2
2018-Feb-20 06:30N 28°27' W 015°29'2 2.9
2018-Feb-20 05:59N 28°28' W 015°27'2 3.8
2018-Feb-20 05:30N 28°29' W 015°25'2 4.6
2018-Feb-20 05:00N 28°30' W 015°23'2 4.1
2018-Feb-20 04:30N 28°29' W 015°25'3 5.7
2018-Feb-20 04:00N 28°30' W 015°22'2 3.4
2018-Feb-20 03:30N 28°30' W 015°20'2 3.8
2018-Feb-20 03:00N 28°30' W 015°18'2 3.6
2018-Feb-20 02:30N 28°30' W 015°16'2 4.3
2018-Feb-20 02:00N 28°30' W 015°14'4 7.8
2018-Feb-20 01:30N 28°31' W 015°09'2 2.3
2018-Feb-20 00:38N 28°30' W 015°11'1 3.6
2018-Feb-20 00:24N 28°30' W 015°12'1 3.6
2018-Feb-20 00:01N 28°29' W 015°13'2 3.6
2018-Feb-19 23:31N 28°28' W 015°15'2 3.5
2018-Feb-19 23:01N 28°28' W 015°17'2 3.7
2018-Feb-19 22:30N 28°28' W 015°19'1 2.1
2018-Feb-19 22:00N 28°27' W 015°20'2 4.1
2018-Feb-19 21:30N 28°28' W 015°18'2 4.5
2018-Feb-19 21:00N 28°30' W 015°16'2 4.9
2018-Feb-19 20:31N 28°30' W 015°19'4 8.0
2018-Feb-19 19:59N 28°29' W 015°24'4 7.7
2018-Feb-19 19:30N 28°28' W 015°28'4 7.5
2018-Feb-19 19:00N 28°27' W 015°32'4 7.6
2018-Feb-19 18:30N 28°26' W 015°36'4 7.7
2018-Feb-19 18:00N 28°25' W 015°40'4 7.5
2018-Feb-19 17:30N 28°24' W 015°44'4 7.9
2018-Feb-19 17:00N 28°23' W 015°49'18 0.7
2018-Feb-18 14:18N 28°37' W 016°00'40 1.0
2018-Feb-16 23:03N 29°03' W 015°26'0 4.6
2018-Feb-16 23:01N 29°03' W 015°26'26 4.5
2018-Feb-16 17:09N 28°47' W 015°50'6 8.3
2018-Feb-16 16:24N 28°43' W 015°55'4 8.4
2018-Feb-16 15:56N 28°40' W 015°58'1 2.0
2018-Feb-16 15:19N 28°39' W 015°59'4 8.0
2018-Feb-16 14:51N 28°37' W 016°02'3 8.2
2018-Feb-16 14:30N 28°34' W 016°04'4 8.1
2018-Feb-16 14:00N 28°31' W 016°07'4 7.9
2018-Feb-16 13:31N 28°30' W 016°11'1 0.5
2018-Feb-16 11:46N 28°30' W 016°12'0 0.1
2018-Feb-16 11:30N 28°30' W 016°12'0 0.4
2018-Feb-16 11:00N 28°30' W 016°12'0 0.0
2018-Feb-16 10:24N 28°30' W 016°12'0 0.0
2018-Feb-16 10:00N 28°30' W 016°12'0 0.0
2018-Feb-16 09:30N 28°30' W 016°12'0 0.0
2018-Feb-16 09:00N 28°30' W 016°12'0 0.0
2018-Feb-16 08:30N 28°30' W 016°12'0 0.0
2018-Feb-16 08:00N 28°30' W 016°12'0 0.0
2018-Feb-16 07:30N 28°30' W 016°12'0 0.0
2018-Feb-16 07:00N 28°30' W 016°12'0 0.0
2018-Feb-16 06:30N 28°30' W 016°12'0 0.0
2018-Feb-16 06:00N 28°30' W 016°12'0 0.0
2018-Feb-16 05:30N 28°30' W 016°12'0 0.0
2018-Feb-16 05:00N 28°30' W 016°12'0 0.0
2018-Feb-16 04:30N 28°30' W 016°12'0 0.0
2018-Feb-16 04:00N 28°30' W 016°12'0 0.0
2018-Feb-16 03:30N 28°30' W 016°12'0 0.0
2018-Feb-16 03:00N 28°30' W 016°12'0 0.0
2018-Feb-16 02:30N 28°30' W 016°12'0 0.0
2018-Feb-16 02:00N 28°30' W 016°12'0 0.0
2018-Feb-16 01:30N 28°30' W 016°12'0 0.0
2018-Feb-16 01:00N 28°30' W 016°12'0 0.0
2018-Feb-16 00:30N 28°30' W 016°12'0 0.0
2018-Feb-16 00:00N 28°30' W 016°12'0 0.0
2018-Feb-15 23:30N 28°30' W 016°12'0 0.0
2018-Feb-15 23:00N 28°30' W 016°12'0 0.0
2018-Feb-15 22:30N 28°30' W 016°12'0 0.0
2018-Feb-15 22:00N 28°30' W 016°12'0 0.0
2018-Feb-15 21:30N 28°30' W 016°12'0 0.0
2018-Feb-15 21:00N 28°30' W 016°12'0 0.0
2018-Feb-15 20:30N 28°30' W 016°12'0 0.0
2018-Feb-15 17:42N 28°30' W 016°12'0 0.0
2018-Feb-15 17:30N 28°30' W 016°12'0 0.0
2018-Feb-15 17:00N 28°30' W 016°12'0 0.0
2018-Feb-15 16:30N 28°30' W 016°12'0 0.0
2018-Feb-15 16:00N 28°30' W 016°12'0 0.0
2018-Feb-15 15:30N 28°30' W 016°12'0 0.0
2018-Feb-15 15:00N 28°30' W 016°12'0 0.0
2018-Feb-15 14:30N 28°30' W 016°12'0 0.0
2018-Feb-15 14:00N 28°30' W 016°12'0 0.0
2018-Feb-15 13:30N 28°30' W 016°12'0 0.0
2018-Feb-15 13:00N 28°30' W 016°12'0 0.0
2018-Feb-15 12:30N 28°30' W 016°12'0 0.0
2018-Feb-15 12:00N 28°30' W 016°12'0 0.0
2018-Feb-15 11:30N 28°30' W 016°12'0 0.0
2018-Feb-15 11:00N 28°30' W 016°12'0 0.0
2018-Feb-15 10:30N 28°30' W 016°12'0 0.0
2018-Feb-15 10:00N 28°30' W 016°12'0 0.0
2018-Feb-15 09:30N 28°30' W 016°12'0 0.0
2018-Feb-15 09:00N 28°30' W 016°12'0 0.0
2018-Feb-15 08:29N 28°30' W 016°12'0 0.0
2018-Feb-15 08:00N 28°30' W 016°12'0 0.0
2018-Feb-15 07:30N 28°30' W 016°12'0 0.0
2018-Feb-15 07:00N 28°30' W 016°12'0 0.0
2018-Feb-15 06:30N 28°30' W 016°12'0 0.0
2018-Feb-15 06:00N 28°30' W 016°12'0 0.0
2018-Feb-15 05:30N 28°30' W 016°12'0 0.0
2018-Feb-15 05:00N 28°30' W 016°12'0 0.0
2018-Feb-15 04:30N 28°30' W 016°12'0 0.0
2018-Feb-15 04:00N 28°30' W 016°12'0 0.0
2018-Feb-15 03:30N 28°30' W 016°12'0 0.0
2018-Feb-15 03:00N 28°30' W 016°12'0 0.7
2018-Feb-15 02:30N 28°29' W 016°12'3 7.0
2018-Feb-15 02:00N 28°30' W 016°09'4 6.7
2018-Feb-15 01:29N 28°33' W 016°06'5 6.4
2018-Feb-15 00:40N 28°38' W 016°08'1 6.9
2018-Feb-15 00:30N 28°38' W 016°10'4 6.8
2018-Feb-14 23:59N 28°39' W 016°13'  
2018-Feb-11 14:27N 28°34' W 016°06'3 6.9
2018-Feb-11 14:00N 28°31' W 016°08'  
Track history (hours):
 
Tides and Currents Weather Stations Pressure Air Temp Water Temp Dewpoint Dewpoint Depression Visibility Wind Speed Wind Dir Waves Ship Positions

Flormar

Last reported at 2018-Feb-21 13:33 UTC. Time now 2018-Feb-22 07:07 UTC.
Position N 28°34' W 016°05'.

Length 23 m; draft 2.4 m.

Type: Other ship. MMSI: 224120850.

Date/timePositionNaut miles runAvg speedWind from/ knotsBaromVisibWave heightAir tempDewpointWater temp
2018-Feb-21 13:33N 28°34' W 016°05'0 8.0
2018-Feb-21 13:30N 28°34' W 016°05'4 7.8
2018-Feb-21 13:00N 28°31' W 016°07'4 8.0
2018-Feb-21 12:30N 28°29' W 016°11'1 2.3
2018-Feb-21 12:00N 28°30' W 016°12'0 0.0
2018-Feb-21 11:30N 28°30' W 016°12'0 0.0
2018-Feb-21 11:00N 28°30' W 016°12'0 0.0
2018-Feb-21 10:30N 28°30' W 016°12'0 0.0
2018-Feb-21 10:00N 28°30' W 016°12'0 0.0
2018-Feb-21 09:30N 28°30' W 016°12'0 0.0
2018-Feb-21 09:00N 28°30' W 016°12'0 0.0
2018-Feb-21 08:30N 28°30' W 016°12'0 0.0
2018-Feb-21 08:00N 28°30' W 016°12'0 0.0
2018-Feb-21 07:30N 28°30' W 016°12'0 0.0
2018-Feb-21 07:00N 28°30' W 016°12'0 0.0
2018-Feb-21 06:30N 28°30' W 016°12'0 0.0
2018-Feb-21 06:00N 28°30' W 016°12'0 0.0
2018-Feb-21 05:29N 28°30' W 016°12'0 0.0
2018-Feb-21 05:00N 28°30' W 016°12'0 0.0
2018-Feb-21 04:30N 28°30' W 016°12'0 0.0
2018-Feb-21 04:00N 28°30' W 016°12'0 0.4
2018-Feb-21 03:29N 28°30' W 016°12'0 0.0
2018-Feb-21 03:00N 28°30' W 016°12'0 0.0
2018-Feb-21 02:30N 28°30' W 016°12'0 0.0
2018-Feb-21 02:00N 28°30' W 016°12'0 0.0
2018-Feb-21 01:30N 28°30' W 016°12'0 0.0
2018-Feb-21 01:00N 28°30' W 016°12'0 0.0
2018-Feb-21 00:30N 28°30' W 016°12'0 0.0
2018-Feb-21 00:00N 28°30' W 016°12'0 0.0
2018-Feb-20 23:30N 28°30' W 016°12'0 0.0
2018-Feb-20 23:00N 28°30' W 016°12'0 0.0
2018-Feb-20 22:30N 28°30' W 016°12'0 0.0
2018-Feb-20 20:25N 28°30' W 016°12'0 0.0
2018-Feb-20 20:00N 28°30' W 016°12'0 0.0
2018-Feb-20 19:30N 28°30' W 016°12'0 0.0
2018-Feb-20 19:01N 28°30' W 016°12'0 0.0
2018-Feb-20 18:30N 28°30' W 016°12'0 0.0
2018-Feb-20 18:01N 28°30' W 016°12'0 0.0
2018-Feb-20 17:31N 28°30' W 016°12'0 0.0
2018-Feb-20 17:01N 28°30' W 016°12'0 0.0
2018-Feb-20 16:30N 28°30' W 016°12'0 0.0
2018-Feb-20 16:01N 28°30' W 016°12'0 0.0
2018-Feb-20 15:30N 28°30' W 016°12'1 1.9
2018-Feb-20 15:00N 28°29' W 016°12'4 8.6
2018-Feb-20 14:31N 28°26' W 016°08'5 8.5
2018-Feb-20 13:55N 28°24' W 016°03'15 6.6
2018-Feb-20 11:40N 28°17' W 015°48'1 3.5
2018-Feb-20 11:27N 28°17' W 015°48'2 4.0
2018-Feb-20 10:58N 28°18' W 015°46'3 5.7
2018-Feb-20 10:30N 28°20' W 015°45'2 3.4
2018-Feb-20 09:59N 28°21' W 015°43'2 4.3
2018-Feb-20 09:29N 28°21' W 015°40'2 4.5
2018-Feb-20 09:00N 28°22' W 015°38'2 4.6
2018-Feb-20 08:31N 28°24' W 015°36'2 4.5
2018-Feb-20 08:01N 28°25' W 015°34'2 4.8
2018-Feb-20 07:30N 28°26' W 015°32'2 3.7
2018-Feb-20 07:00N 28°27' W 015°30'1 2.2
2018-Feb-20 06:30N 28°27' W 015°29'2 2.9
2018-Feb-20 05:59N 28°28' W 015°27'2 3.8
2018-Feb-20 05:30N 28°29' W 015°25'2 4.6
2018-Feb-20 05:00N 28°30' W 015°23'2 4.1
2018-Feb-20 04:30N 28°29' W 015°25'3 5.7
2018-Feb-20 04:00N 28°30' W 015°22'2 3.4
2018-Feb-20 03:30N 28°30' W 015°20'2 3.8
2018-Feb-20 03:00N 28°30' W 015°18'2 3.6
2018-Feb-20 02:30N 28°30' W 015°16'2 4.3
2018-Feb-20 02:00N 28°30' W 015°14'4 7.8
2018-Feb-20 01:30N 28°31' W 015°09'2 2.3
2018-Feb-20 00:38N 28°30' W 015°11'1 3.6
2018-Feb-20 00:24N 28°30' W 015°12'1 3.6
2018-Feb-20 00:01N 28°29' W 015°13'2 3.6
2018-Feb-19 23:31N 28°28' W 015°15'2 3.5
2018-Feb-19 23:01N 28°28' W 015°17'2 3.7
2018-Feb-19 22:30N 28°28' W 015°19'1 2.1
2018-Feb-19 22:00N 28°27' W 015°20'2 4.1
2018-Feb-19 21:30N 28°28' W 015°18'2 4.5
2018-Feb-19 21:00N 28°30' W 015°16'2 4.9
2018-Feb-19 20:31N 28°30' W 015°19'4 8.0
2018-Feb-19 19:59N 28°29' W 015°24'4 7.7
2018-Feb-19 19:30N 28°28' W 015°28'4 7.5
2018-Feb-19 19:00N 28°27' W 015°32'4 7.6
2018-Feb-19 18:30N 28°26' W 015°36'4 7.7
2018-Feb-19 18:00N 28°25' W 015°40'4 7.5
2018-Feb-19 17:30N 28°24' W 015°44'4 7.9
2018-Feb-19 17:00N 28°23' W 015°49'18 0.7
2018-Feb-18 14:18N 28°37' W 016°00'40 1.0
2018-Feb-16 23:03N 29°03' W 015°26'0 4.6
2018-Feb-16 23:01N 29°03' W 015°26'26 4.5
2018-Feb-16 17:09N 28°47' W 015°50'6 8.3
2018-Feb-16 16:24N 28°43' W 015°55'4 8.4
2018-Feb-16 15:56N 28°40' W 015°58'1 2.0
2018-Feb-16 15:19N 28°39' W 015°59'4 8.0
2018-Feb-16 14:51N 28°37' W 016°02'3 8.2
2018-Feb-16 14:30N 28°34' W 016°04'4 8.1
2018-Feb-16 14:00N 28°31' W 016°07'4 7.9
2018-Feb-16 13:31N 28°30' W 016°11'1 0.5
2018-Feb-16 11:46N 28°30' W 016°12'0 0.1
2018-Feb-16 11:30N 28°30' W 016°12'0 0.4
2018-Feb-16 11:00N 28°30' W 016°12'0 0.0
2018-Feb-16 10:24N 28°30' W 016°12'0 0.0
2018-Feb-16 10:00N 28°30' W 016°12'0 0.0
2018-Feb-16 09:30N 28°30' W 016°12'0 0.0
2018-Feb-16 09:00N 28°30' W 016°12'0 0.0
2018-Feb-16 08:30N 28°30' W 016°12'0 0.0
2018-Feb-16 08:00N 28°30' W 016°12'0 0.0
2018-Feb-16 07:30N 28°30' W 016°12'0 0.0
2018-Feb-16 07:00N 28°30' W 016°12'0 0.0
2018-Feb-16 06:30N 28°30' W 016°12'0 0.0
2018-Feb-16 06:00N 28°30' W 016°12'0 0.0
2018-Feb-16 05:30N 28°30' W 016°12'0 0.0
2018-Feb-16 05:00N 28°30' W 016°12'0 0.0
2018-Feb-16 04:30N 28°30' W 016°12'0 0.0
2018-Feb-16 04:00N 28°30' W 016°12'0 0.0
2018-Feb-16 03:30N 28°30' W 016°12'0 0.0
2018-Feb-16 03:00N 28°30' W 016°12'0 0.0
2018-Feb-16 02:30N 28°30' W 016°12'0 0.0
2018-Feb-16 02:00N 28°30' W 016°12'0 0.0
2018-Feb-16 01:30N 28°30' W 016°12'0 0.0
2018-Feb-16 01:00N 28°30' W 016°12'0 0.0
2018-Feb-16 00:30N 28°30' W 016°12'0 0.0
2018-Feb-16 00:00N 28°30' W 016°12'0 0.0
2018-Feb-15 23:30N 28°30' W 016°12'0 0.0
2018-Feb-15 23:00N 28°30' W 016°12'0 0.0
2018-Feb-15 22:30N 28°30' W 016°12'0 0.0
2018-Feb-15 22:00N 28°30' W 016°12'0 0.0
2018-Feb-15 21:30N 28°30' W 016°12'0 0.0
2018-Feb-15 21:00N 28°30' W 016°12'0 0.0
2018-Feb-15 20:30N 28°30' W 016°12'0 0.0
2018-Feb-15 17:42N 28°30' W 016°12'0 0.0
2018-Feb-15 17:30N 28°30' W 016°12'0 0.0
2018-Feb-15 17:00N 28°30' W 016°12'0 0.0
2018-Feb-15 16:30N 28°30' W 016°12'0 0.0
2018-Feb-15 16:00N 28°30' W 016°12'0 0.0
2018-Feb-15 15:30N 28°30' W 016°12'0 0.0
2018-Feb-15 15:00N 28°30' W 016°12'0 0.0
2018-Feb-15 14:30N 28°30' W 016°12'0 0.0
2018-Feb-15 14:00N 28°30' W 016°12'0 0.0
2018-Feb-15 13:30N 28°30' W 016°12'0 0.0
2018-Feb-15 13:00N 28°30' W 016°12'0 0.0
2018-Feb-15 12:30N 28°30' W 016°12'0 0.0
2018-Feb-15 12:00N 28°30' W 016°12'0 0.0
2018-Feb-15 11:30N 28°30' W 016°12'0 0.0
2018-Feb-15 11:00N 28°30' W 016°12'0 0.0
2018-Feb-15 10:30N 28°30' W 016°12'0 0.0
2018-Feb-15 10:00N 28°30' W 016°12'0 0.0
2018-Feb-15 09:30N 28°30' W 016°12'0 0.0
2018-Feb-15 09:00N 28°30' W 016°12'0 0.0
2018-Feb-15 08:29N 28°30' W 016°12'0 0.0
2018-Feb-15 08:00N 28°30' W 016°12'0 0.0
2018-Feb-15 07:30N 28°30' W 016°12'0 0.0
2018-Feb-15 07:00N 28°30' W 016°12'0 0.0
2018-Feb-15 06:30N 28°30' W 016°12'0 0.0
2018-Feb-15 06:00N 28°30' W 016°12'0 0.0
2018-Feb-15 05:30N 28°30' W 016°12'0 0.0
2018-Feb-15 05:00N 28°30' W 016°12'0 0.0
2018-Feb-15 04:30N 28°30' W 016°12'0 0.0
2018-Feb-15 04:00N 28°30' W 016°12'0 0.0
2018-Feb-15 03:30N 28°30' W 016°12'0 0.0
2018-Feb-15 03:00N 28°30' W 016°12'0 0.7
2018-Feb-15 02:30N 28°29' W 016°12'3 7.0
2018-Feb-15 02:00N 28°30' W 016°09'4 6.7
2018-Feb-15 01:29N 28°33' W 016°06'5 6.4
2018-Feb-15 00:40N 28°38' W 016°08'1 6.9
2018-Feb-15 00:30N 28°38' W 016°10'4 6.8
2018-Feb-14 23:59N 28°39' W 016°13'  
2018-Feb-11 14:27N 28°34' W 016°06'3 6.9
2018-Feb-11 14:00N 28°31' W 016°08'  

Dump ship's entire track history